Terminal Aerodrome Forecast
Issued by NWS

Home | Current Version | Previous Version | Text Only | Print | Product List | Glossary On
Versions: 1 2 3 4 5 6 7 8 9 10 11 12 13 14 15 16 17 18 19 20
000
FTAK31 PANC 221346 AAA
TAFAEN
TAF AMD
PAEN 221346Z 2214/2312 08004KT 3SM BR SCT080
      TEMPO 2214/2217 1/2SM FZFG VV002
     FM221900 05006KT P6SM SCT200
     FM230300 02010KT P6SM SCT050 OVC100=

USA.gov is the U.S. government's official web portal to all federal, state and local government web resources and services.